createdAt,value
2022-08-07T00:04:48.661Z,3.25
2022-08-07T00:10:04.928Z,2.50
2022-08-07T00:15:15.510Z,3.17
2022-08-07T00:20:30.002Z,3.20
2022-08-07T00:25:41.448Z,2.45
2022-08-07T00:30:44.476Z,2.60
2022-08-07T00:35:49.693Z,2.83
2022-08-07T00:40:53.988Z,4.07
2022-08-07T00:45:56.724Z,2.80
2022-08-07T00:50:59.666Z,2.00
2022-08-07T00:56:04.656Z,2.75
2022-08-07T01:01:17.504Z,1.70
2022-08-07T01:06:21.929Z,2.47
2022-08-07T01:12:09.280Z,2.70
2022-08-07T01:16:50.460Z,2.38
2022-08-07T01:21:57.125Z,2.38
2022-08-07T01:27:03.617Z,2.90
2022-08-07T01:32:12.467Z,2.17
2022-08-07T01:37:20.825Z,2.13
2022-08-07T01:42:38.538Z,1.67
2022-08-07T01:48:21.518Z,3.45
2022-08-07T01:53:20.807Z,2.00
2022-08-07T01:58:33.285Z,4.85
2022-08-07T02:03:48.940Z,2.22
2022-08-07T02:08:57.083Z,2.20
2022-08-07T02:14:03.180Z,2.45
2022-08-07T02:20:04.238Z,1.58
2022-08-07T02:24:35.976Z,1.85
2022-08-07T02:29:48.581Z,1.58
2022-08-07T02:34:58.903Z,1.60
2022-08-07T02:40:29.699Z,1.63
2022-08-07T02:45:58.270Z,1.35
2022-08-07T02:50:58.632Z,1.40
2022-08-07T02:56:11.266Z,2.88
2022-08-07T03:01:35.961Z,1.95
2022-08-07T03:06:45.961Z,1.88
2022-08-07T03:11:58.011Z,2.28
2022-08-07T03:17:08.675Z,1.45
2022-08-07T03:22:18.899Z,2.75
2022-08-07T03:27:30.815Z,5.40
2022-08-07T03:32:57.039Z,2.15
2022-08-07T03:38:05.251Z,2.38
2022-08-07T03:43:14.564Z,3.83
2022-08-07T03:48:22.424Z,2.08
2022-08-07T03:53:50.116Z,1.50
2022-08-07T03:59:08.794Z,2.58
2022-08-07T04:04:17.953Z,3.95
2022-08-07T04:09:24.504Z,2.45
2022-08-07T04:14:38.772Z,4.80
2022-08-07T04:19:52.270Z,2.53
2022-08-07T04:25:01.663Z,2.72
2022-08-07T04:30:20.928Z,2.38
2022-08-07T04:35:37.101Z,2.13
2022-08-07T04:40:52.418Z,1.95
2022-08-07T04:46:12.338Z,3.30
2022-08-07T04:51:29.494Z,2.00
2022-08-07T04:58:11.764Z,3.35
2022-08-07T05:02:16.930Z,3.22
2022-08-07T05:07:30.488Z,1.80
2022-08-07T05:12:46.414Z,3.13
2022-08-07T05:18:06.153Z,1.70
2022-08-07T05:23:16.568Z,1.58
2022-08-07T05:28:26.763Z,1.60
2022-08-07T05:33:36.892Z,2.58
2022-08-07T05:39:00.644Z,2.22
2022-08-07T05:44:11.799Z,1.67
2022-08-07T05:49:20.688Z,1.38
2022-08-07T05:54:30.707Z,1.85
2022-08-07T05:59:55.767Z,1.60
2022-08-07T06:05:05.023Z,1.33
2022-08-07T06:10:11.192Z,1.38
2022-08-07T06:15:19.893Z,2.78
2022-08-07T06:20:49.723Z,2.53
2022-08-07T06:25:54.298Z,1.17
2022-08-07T06:31:00.472Z,1.45
2022-08-07T06:36:13.077Z,1.15
2022-08-07T06:42:02.509Z,1.20
2022-08-07T06:46:53.770Z,1.00
2022-08-07T06:52:17.032Z,1.10
2022-08-07T06:57:39.636Z,0.90
2022-08-07T07:02:57.485Z,1.98
2022-08-07T07:08:06.748Z,1.45
2022-08-07T07:13:14.065Z,2.40
2022-08-07T07:18:37.669Z,1.75
2022-08-07T07:24:06.428Z,1.40
2022-08-07T07:29:40.434Z,1.30
2022-08-07T07:34:37.793Z,1.45
2022-08-07T07:39:52.554Z,1.88
2022-08-07T07:45:00.318Z,2.53
2022-08-07T07:50:33.643Z,1.23
2022-08-07T07:55:37.482Z,3.80
2022-08-07T08:00:53.768Z,2.55
2022-08-07T08:05:57.086Z,1.13
2022-08-07T08:11:01.618Z,0.95
2022-08-07T08:16:07.378Z,1.20
2022-08-07T08:21:55.731Z,0.93
2022-08-07T08:27:09.748Z,1.10
2022-08-07T08:32:18.636Z,0.90
2022-08-07T08:38:00.379Z,1.00
2022-08-07T08:42:57.600Z,1.30
2022-08-07T08:48:08.148Z,0.85
2022-08-07T08:53:19.213Z,1.30
2022-08-07T08:58:33.263Z,1.52
2022-08-07T09:03:52.985Z,0.93
2022-08-07T09:09:36.447Z,0.90
2022-08-07T09:14:58.953Z,1.35
2022-08-07T09:20:34.787Z,0.80
2022-08-07T09:25:54.572Z,1.95
2022-08-07T09:31:03.049Z,0.80
2022-08-07T09:36:12.733Z,2.63
2022-08-07T09:41:24.978Z,0.80
2022-08-07T09:47:51.999Z,1.77
2022-08-07T09:52:33.531Z,0.80
2022-08-07T09:57:55.143Z,0.73
2022-08-07T10:04:05.215Z,1.00
2022-08-07T10:09:08.990Z,0.85
2022-08-07T10:14:31.216Z,0.80
2022-08-07T10:20:03.100Z,1.90
2022-08-07T10:25:42.286Z,0.80
2022-08-07T10:30:57.060Z,1.02
2022-08-07T10:36:30.237Z,0.90
2022-08-07T10:41:57.668Z,0.90
2022-08-07T10:47:31.381Z,0.85
2022-08-07T10:52:55.699Z,2.90
2022-08-07T10:58:06.859Z,0.93
2022-08-07T11:03:17.281Z,0.70
2022-08-07T11:08:30.437Z,0.95
2022-08-07T11:14:44.810Z,0.90
2022-08-07T11:19:11.388Z,0.90
2022-08-07T11:24:20.800Z,1.00
2022-08-07T11:29:47.272Z,1.38
2022-08-07T11:34:52.370Z,1.00
2022-08-07T11:40:10.078Z,1.55
2022-08-07T11:45:20.324Z,1.00
2022-08-07T11:50:33.508Z,1.35
2022-08-07T11:56:09.718Z,0.85
2022-08-07T12:01:59.795Z,2.15
2022-08-07T12:07:02.381Z,1.05
2022-08-07T12:12:14.712Z,2.10
2022-08-07T12:17:21.978Z,0.98
2022-08-07T12:22:38.940Z,0.80
2022-08-07T12:28:09.041Z,1.00
2022-08-07T12:33:23.517Z,0.90
2022-08-07T12:38:42.507Z,1.10
2022-08-07T12:44:02.829Z,0.85
2022-08-07T12:49:25.358Z,3.38
2022-08-07T12:54:54.658Z,1.05
2022-08-07T13:00:01.180Z,0.88
2022-08-07T13:06:03.676Z,8.80
2022-08-07T13:10:51.871Z,86.07
2022-08-07T13:16:01.838Z,103.50
2022-08-07T13:21:10.812Z,103.40
2022-08-07T13:26:18.598Z,93.45
2022-08-07T13:31:32.102Z,86.75
2022-08-07T13:36:54.307Z,73.30
2022-08-07T13:41:57.551Z,60.72
2022-08-07T13:47:02.557Z,53.22
2022-08-07T13:52:32.107Z,46.03
2022-08-07T13:57:38.128Z,40.05
2022-08-07T14:02:51.069Z,32.78
2022-08-07T14:08:01.203Z,28.42
2022-08-07T14:13:05.106Z,22.08
2022-08-07T14:18:29.669Z,20.60
2022-08-07T14:24:01.661Z,17.38
2022-08-07T14:29:08.497Z,14.90
2022-08-07T14:34:30.771Z,13.45
2022-08-07T14:40:15.518Z,11.88
2022-08-07T14:45:21.780Z,10.63
2022-08-07T14:50:42.759Z,9.35
2022-08-07T15:06:39.852Z,6.65
2022-08-07T15:12:01.276Z,5.28
2022-08-07T15:17:12.454Z,4.47
2022-08-07T15:22:29.519Z,4.95
2022-08-07T15:27:36.780Z,4.75
2022-08-07T15:33:01.453Z,4.35
2022-08-07T15:38:17.678Z,6.55
2022-08-07T15:43:53.851Z,3.40
2022-08-07T15:59:44.143Z,4.75
2022-08-07T16:04:47.186Z,4.78
2022-08-07T16:09:52.981Z,9.27
2022-08-07T16:15:55.030Z,2.95
2022-08-07T16:20:55.255Z,3.72
2022-08-07T16:26:14.407Z,2.50
2022-08-07T16:31:51.899Z,3.10
2022-08-07T16:38:03.512Z,2.70
2022-08-07T16:43:05.217Z,3.70
2022-08-07T16:49:04.262Z,2.05
2022-08-07T16:54:38.468Z,2.05
2022-08-07T17:00:05.408Z,2.35
2022-08-07T17:06:19.903Z,2.20
2022-08-07T17:10:54.546Z,2.13
2022-08-07T17:16:04.255Z,1.73
2022-08-07T17:21:19.174Z,1.80
2022-08-07T17:26:35.875Z,3.60
2022-08-07T17:32:02.651Z,1.80
2022-08-07T17:38:08.423Z,1.50
2022-08-07T17:42:59.194Z,1.20
2022-08-07T17:48:10.379Z,1.70
2022-08-07T17:54:00.039Z,2.15
2022-08-07T17:58:59.350Z,1.52
2022-08-07T18:04:16.157Z,1.95
2022-08-07T18:10:05.248Z,2.63
2022-08-07T18:14:50.869Z,1.25
2022-08-07T18:21:10.553Z,1.23
2022-08-07T18:25:40.879Z,1.30
2022-08-07T18:30:52.671Z,1.20
2022-08-07T18:36:06.037Z,1.40
2022-08-07T18:41:16.754Z,1.63
2022-08-07T18:46:27.013Z,1.20
2022-08-07T18:52:35.317Z,1.40
2022-08-07T18:57:39.983Z,1.40
2022-08-07T19:02:42.508Z,1.67
2022-08-07T19:07:58.866Z,1.40
2022-08-07T19:13:11.867Z,1.38
2022-08-07T19:18:34.992Z,1.50
2022-08-07T19:23:58.135Z,1.20
2022-08-07T19:30:57.161Z,1.52
2022-08-07T19:34:33.924Z,1.48
2022-08-07T19:39:40.802Z,1.50
2022-08-07T19:45:08.651Z,1.40
2022-08-07T19:50:40.985Z,1.30
2022-08-07T19:55:56.752Z,2.47
2022-08-07T20:00:59.849Z,2.08
2022-08-07T20:06:06.025Z,1.52
2022-08-07T20:11:11.998Z,1.42
2022-08-07T20:16:34.911Z,1.95
2022-08-07T20:21:42.274Z,2.05
2022-08-07T20:26:54.457Z,2.10
2022-08-07T20:32:00.616Z,1.90
2022-08-07T20:37:05.542Z,2.10
2022-08-07T20:42:12.300Z,2.05
2022-08-07T20:47:25.012Z,1.75
2022-08-07T20:52:50.794Z,1.67
2022-08-07T20:58:04.123Z,2.25
2022-08-07T21:03:19.299Z,1.50
2022-08-07T21:08:36.953Z,1.58
2022-08-07T21:14:16.710Z,1.50
2022-08-07T21:19:14.066Z,1.55
2022-08-07T21:24:23.673Z,1.65
2022-08-07T21:29:33.473Z,1.95
2022-08-07T21:34:46.282Z,2.53
2022-08-07T21:39:56.605Z,2.97
2022-08-07T21:46:05.423Z,1.90
2022-08-07T21:50:33.515Z,3.35
2022-08-07T21:55:43.583Z,3.53
2022-08-07T22:00:54.081Z,3.38
2022-08-07T22:06:01.778Z,1.77
2022-08-07T22:11:06.033Z,2.50
2022-08-07T22:16:39.780Z,2.67
2022-08-07T22:22:05.291Z,2.67
2022-08-07T22:27:07.036Z,3.72
2022-08-07T22:32:20.390Z,2.33
2022-08-07T22:38:03.749Z,1.92
2022-08-07T22:43:10.916Z,2.70
2022-08-07T22:48:55.093Z,2.70
2022-08-07T22:54:06.830Z,3.80
2022-08-07T22:59:32.675Z,4.05
2022-08-07T23:04:58.594Z,2.10
2022-08-07T23:10:38.374Z,2.20
2022-08-07T23:16:06.452Z,2.20
2022-08-07T23:21:29.810Z,2.58
2022-08-07T23:26:50.242Z,2.90
2022-08-07T23:34:20.774Z,2.58
2022-08-07T23:38:01.494Z,3.25
2022-08-07T23:43:38.014Z,2.53
2022-08-07T23:48:58.746Z,2.83
2022-08-07T23:54:08.378Z,3.53
